sensor_id;sensor_type;location;lat;lon;timestamp;P1;durP1;ratioP1;P2;durP2;ratioP2
15938;SDS011;8068;51.322;9.450;2023-05-20T00:01:16;2.00;;;1.90;;
15938;SDS011;8068;51.322;9.450;2023-05-20T00:03:42;8.30;;;2.23;;
15938;SDS011;8068;51.322;9.450;2023-05-20T00:06:08;2.50;;;2.30;;
15938;SDS011;8068;51.322;9.450;2023-05-20T00:08:35;2.50;;;2.30;;
15938;SDS011;8068;51.322;9.450;2023-05-20T00:11:01;3.00;;;2.10;;
15938;SDS011;8068;51.322;9.450;2023-05-20T00:13:27;2.90;;;1.90;;
15938;SDS011;8068;51.322;9.450;2023-05-20T00:15:53;2.23;;;2.07;;
15938;SDS011;8068;51.322;9.450;2023-05-20T00:18:19;2.63;;;2.53;;
15938;SDS011;8068;51.322;9.450;2023-05-20T00:20:45;2.47;;;2.27;;
15938;SDS011;8068;51.322;9.450;2023-05-20T00:23:11;2.13;;;2.03;;
15938;SDS011;8068;51.322;9.450;2023-05-20T00:25:37;8.33;;;2.23;;
15938;SDS011;8068;51.322;9.450;2023-05-20T00:28:04;2.80;;;2.07;;
15938;SDS011;8068;51.322;9.450;2023-05-20T00:30:31;3.23;;;2.30;;
15938;SDS011;8068;51.322;9.450;2023-05-20T00:32:57;2.40;;;2.30;;
15938;SDS011;8068;51.322;9.450;2023-05-20T00:35:23;4.23;;;2.30;;
15938;SDS011;8068;51.322;9.450;2023-05-20T00:37:49;2.60;;;2.40;;
15938;SDS011;8068;51.322;9.450;2023-05-20T00:40:15;2.60;;;2.20;;
15938;SDS011;8068;51.322;9.450;2023-05-20T00:42:42;2.70;;;2.60;;
15938;SDS011;8068;51.322;9.450;2023-05-20T00:45:08;3.23;;;2.50;;
15938;SDS011;8068;51.322;9.450;2023-05-20T00:47:35;2.13;;;2.03;;
15938;SDS011;8068;51.322;9.450;2023-05-20T00:50:02;3.13;;;2.93;;
15938;SDS011;8068;51.322;9.450;2023-05-20T00:52:29;3.40;;;2.50;;
15938;SDS011;8068;51.322;9.450;2023-05-20T00:54:56;2.50;;;2.40;;
15938;SDS011;8068;51.322;9.450;2023-05-20T00:57:23;3.80;;;2.83;;
15938;SDS011;8068;51.322;9.450;2023-05-20T00:59:50;2.40;;;2.30;;
15938;SDS011;8068;51.322;9.450;2023-05-20T01:02:16;2.17;;;2.07;;
15938;SDS011;8068;51.322;9.450;2023-05-20T01:04:42;2.63;;;2.53;;
15938;SDS011;8068;51.322;9.450;2023-05-20T01:07:12;2.50;;;2.40;;
15938;SDS011;8068;51.322;9.450;2023-05-20T01:09:40;7.10;;;2.70;;
15938;SDS011;8068;51.322;9.450;2023-05-20T01:14:47;2.67;;;2.47;;
15938;SDS011;8068;51.322;9.450;2023-05-20T01:17:15;2.47;;;2.30;;
15938;SDS011;8068;51.322;9.450;2023-05-20T01:19:43;2.93;;;2.73;;
15938;SDS011;8068;51.322;9.450;2023-05-20T01:22:11;2.23;;;2.03;;
15938;SDS011;8068;51.322;9.450;2023-05-20T01:27:07;3.13;;;2.83;;
15938;SDS011;8068;51.322;9.450;2023-05-20T01:29:38;5.27;;;2.70;;
15938;SDS011;8068;51.322;9.450;2023-05-20T01:32:06;3.10;;;2.77;;
15938;SDS011;8068;51.322;9.450;2023-05-20T01:34:37;4.80;;;2.80;;
15938;SDS011;8068;51.322;9.450;2023-05-20T01:37:04;2.87;;;2.77;;
15938;SDS011;8068;51.322;9.450;2023-05-20T01:39:33;2.70;;;2.60;;
15938;SDS011;8068;51.322;9.450;2023-05-20T01:42:02;3.50;;;2.57;;
15938;SDS011;8068;51.322;9.450;2023-05-20T01:44:29;8.47;;;2.80;;
15938;SDS011;8068;51.322;9.450;2023-05-20T01:46:55;2.87;;;2.70;;
15938;SDS011;8068;51.322;9.450;2023-05-20T01:49:21;4.40;;;2.87;;
15938;SDS011;8068;51.322;9.450;2023-05-20T01:51:48;3.40;;;3.10;;
15938;SDS011;8068;51.322;9.450;2023-05-20T01:54:14;2.70;;;2.60;;
15938;SDS011;8068;51.322;9.450;2023-05-20T01:56:40;3.03;;;2.73;;
15938;SDS011;8068;51.322;9.450;2023-05-20T01:59:06;3.13;;;2.60;;
15938;SDS011;8068;51.322;9.450;2023-05-20T02:01:32;3.00;;;2.83;;
15938;SDS011;8068;51.322;9.450;2023-05-20T02:03:58;3.33;;;3.13;;
15938;SDS011;8068;51.322;9.450;2023-05-20T02:06:24;2.80;;;2.60;;
15938;SDS011;8068;51.322;9.450;2023-05-20T02:08:51;3.17;;;2.93;;
15938;SDS011;8068;51.322;9.450;2023-05-20T02:11:17;2.97;;;2.87;;
15938;SDS011;8068;51.322;9.450;2023-05-20T02:13:43;3.40;;;3.10;;
15938;SDS011;8068;51.322;9.450;2023-05-20T02:16:09;7.83;;;2.87;;
15938;SDS011;8068;51.322;9.450;2023-05-20T02:18:35;3.40;;;2.80;;
15938;SDS011;8068;51.322;9.450;2023-05-20T02:21:02;7.20;;;2.87;;
15938;SDS011;8068;51.322;9.450;2023-05-20T02:23:29;4.70;;;2.80;;
15938;SDS011;8068;51.322;9.450;2023-05-20T02:25:55;2.97;;;2.80;;
15938;SDS011;8068;51.322;9.450;2023-05-20T02:28:22;2.40;;;2.30;;
15938;SDS011;8068;51.322;9.450;2023-05-20T02:30:48;7.07;;;2.70;;
15938;SDS011;8068;51.322;9.450;2023-05-20T02:33:16;2.90;;;2.70;;
15938;SDS011;8068;51.322;9.450;2023-05-20T02:35:43;7.80;;;2.53;;
15938;SDS011;8068;51.322;9.450;2023-05-20T02:38:09;3.10;;;2.90;;
15938;SDS011;8068;51.322;9.450;2023-05-20T02:40:36;2.90;;;2.70;;
15938;SDS011;8068;51.322;9.450;2023-05-20T02:43:03;3.00;;;2.70;;
15938;SDS011;8068;51.322;9.450;2023-05-20T02:45:29;2.87;;;2.73;;
15938;SDS011;8068;51.322;9.450;2023-05-20T02:47:55;3.27;;;2.70;;
15938;SDS011;8068;51.322;9.450;2023-05-20T02:50:22;3.30;;;3.03;;
15938;SDS011;8068;51.322;9.450;2023-05-20T02:52:48;3.33;;;3.10;;
15938;SDS011;8068;51.322;9.450;2023-05-20T02:55:14;3.57;;;3.40;;
15938;SDS011;8068;51.322;9.450;2023-05-20T02:57:40;4.17;;;3.87;;
15938;SDS011;8068;51.322;9.450;2023-05-20T03:00:07;4.23;;;3.73;;
15938;SDS011;8068;51.322;9.450;2023-05-20T03:02:38;4.30;;;4.00;;
15938;SDS011;8068;51.322;9.450;2023-05-20T03:05:04;6.40;;;3.40;;
15938;SDS011;8068;51.322;9.450;2023-05-20T03:07:33;3.90;;;3.70;;
15938;SDS011;8068;51.322;9.450;2023-05-20T03:10:01;3.87;;;3.57;;
15938;SDS011;8068;51.322;9.450;2023-05-20T03:12:28;3.70;;;3.30;;
15938;SDS011;8068;51.322;9.450;2023-05-20T03:14:56;3.20;;;3.00;;
15938;SDS011;8068;51.322;9.450;2023-05-20T03:17:23;3.70;;;3.40;;
15938;SDS011;8068;51.322;9.450;2023-05-20T03:19:49;3.20;;;3.00;;
15938;SDS011;8068;51.322;9.450;2023-05-20T03:22:15;4.60;;;4.20;;
15938;SDS011;8068;51.322;9.450;2023-05-20T03:24:42;4.07;;;3.67;;
15938;SDS011;8068;51.322;9.450;2023-05-20T03:27:09;3.60;;;3.40;;
15938;SDS011;8068;51.322;9.450;2023-05-20T03:29:35;3.50;;;3.20;;
15938;SDS011;8068;51.322;9.450;2023-05-20T03:32:01;3.97;;;3.67;;
15938;SDS011;8068;51.322;9.450;2023-05-20T03:34:27;3.53;;;3.33;;
15938;SDS011;8068;51.322;9.450;2023-05-20T03:36:55;3.97;;;3.67;;
15938;SDS011;8068;51.322;9.450;2023-05-20T03:39:22;4.17;;;3.63;;
15938;SDS011;8068;51.322;9.450;2023-05-20T03:41:48;5.20;;;3.50;;
15938;SDS011;8068;51.322;9.450;2023-05-20T03:44:14;12.53;;;3.57;;
15938;SDS011;8068;51.322;9.450;2023-05-20T03:46:40;3.93;;;3.73;;
15938;SDS011;8068;51.322;9.450;2023-05-20T03:49:06;4.00;;;3.80;;
15938;SDS011;8068;51.322;9.450;2023-05-20T03:51:33;3.87;;;3.60;;
15938;SDS011;8068;51.322;9.450;2023-05-20T03:53:59;3.83;;;3.40;;
15938;SDS011;8068;51.322;9.450;2023-05-20T03:56:25;4.43;;;4.23;;
15938;SDS011;8068;51.322;9.450;2023-05-20T03:58:52;4.07;;;3.77;;
15938;SDS011;8068;51.322;9.450;2023-05-20T04:01:18;4.73;;;4.33;;
15938;SDS011;8068;51.322;9.450;2023-05-20T04:03:46;4.60;;;4.40;;
15938;SDS011;8068;51.322;9.450;2023-05-20T04:06:12;4.93;;;4.43;;
15938;SDS011;8068;51.322;9.450;2023-05-20T04:08:38;4.47;;;4.07;;
15938;SDS011;8068;51.322;9.450;2023-05-20T04:11:04;5.53;;;4.27;;
15938;SDS011;8068;51.322;9.450;2023-05-20T04:13:31;4.47;;;4.17;;
15938;SDS011;8068;51.322;9.450;2023-05-20T04:15:57;4.27;;;3.90;;
15938;SDS011;8068;51.322;9.450;2023-05-20T04:18:26;7.77;;;4.97;;
15938;SDS011;8068;51.322;9.450;2023-05-20T04:20:54;4.93;;;4.63;;
15938;SDS011;8068;51.322;9.450;2023-05-20T04:23:23;4.87;;;4.43;;
15938;SDS011;8068;51.322;9.450;2023-05-20T04:25:50;4.70;;;4.40;;
15938;SDS011;8068;51.322;9.450;2023-05-20T04:28:16;5.67;;;5.00;;
15938;SDS011;8068;51.322;9.450;2023-05-20T04:30:42;5.27;;;4.97;;
15938;SDS011;8068;51.322;9.450;2023-05-20T04:33:10;4.83;;;4.43;;
15938;SDS011;8068;51.322;9.450;2023-05-20T04:35:36;6.13;;;4.60;;
15938;SDS011;8068;51.322;9.450;2023-05-20T04:38:06;4.93;;;4.63;;
15938;SDS011;8068;51.322;9.450;2023-05-20T04:40:33;6.10;;;5.10;;
15938;SDS011;8068;51.322;9.450;2023-05-20T04:42:59;5.80;;;5.30;;
15938;SDS011;8068;51.322;9.450;2023-05-20T04:45:25;6.30;;;5.03;;
15938;SDS011;8068;51.322;9.450;2023-05-20T04:47:51;5.47;;;5.07;;
15938;SDS011;8068;51.322;9.450;2023-05-20T04:50:18;6.07;;;5.67;;
15938;SDS011;8068;51.322;9.450;2023-05-20T04:52:44;5.87;;;5.37;;
15938;SDS011;8068;51.322;9.450;2023-05-20T04:55:11;6.27;;;5.67;;
15938;SDS011;8068;51.322;9.450;2023-05-20T04:57:37;6.33;;;5.70;;
15938;SDS011;8068;51.322;9.450;2023-05-20T05:00:10;9.10;;;5.20;;
15938;SDS011;8068;51.322;9.450;2023-05-20T05:02:37;5.50;;;5.20;;
15938;SDS011;8068;51.322;9.450;2023-05-20T05:05:03;6.90;;;6.30;;
15938;SDS011;8068;51.322;9.450;2023-05-20T05:07:30;6.67;;;6.27;;
15938;SDS011;8068;51.322;9.450;2023-05-20T05:09:56;6.87;;;6.33;;
15938;SDS011;8068;51.322;9.450;2023-05-20T05:12:23;7.17;;;6.60;;
15938;SDS011;8068;51.322;9.450;2023-05-20T05:14:49;11.43;;;5.73;;
15938;SDS011;8068;51.322;9.450;2023-05-20T05:17:15;7.93;;;5.70;;
15938;SDS011;8068;51.322;9.450;2023-05-20T05:19:41;7.43;;;6.33;;
15938;SDS011;8068;51.322;9.450;2023-05-20T05:22:08;7.10;;;6.60;;
15938;SDS011;8068;51.322;9.450;2023-05-20T05:24:34;6.83;;;6.37;;
15938;SDS011;8068;51.322;9.450;2023-05-20T05:27:00;7.03;;;6.27;;
15938;SDS011;8068;51.322;9.450;2023-05-20T05:29:26;6.90;;;6.30;;
15938;SDS011;8068;51.322;9.450;2023-05-20T05:31:52;8.10;;;7.40;;
15938;SDS011;8068;51.322;9.450;2023-05-20T05:34:18;7.37;;;6.67;;
15938;SDS011;8068;51.322;9.450;2023-05-20T05:36:44;10.10;;;7.13;;
15938;SDS011;8068;51.322;9.450;2023-05-20T05:39:10;7.30;;;6.60;;
15938;SDS011;8068;51.322;9.450;2023-05-20T05:41:36;7.63;;;6.20;;
15938;SDS011;8068;51.322;9.450;2023-05-20T05:44:03;6.40;;;6.00;;
15938;SDS011;8068;51.322;9.450;2023-05-20T05:46:29;7.90;;;7.20;;
15938;SDS011;8068;51.322;9.450;2023-05-20T05:48:56;6.87;;;6.30;;
15938;SDS011;8068;51.322;9.450;2023-05-20T05:51:23;7.10;;;6.60;;
15938;SDS011;8068;51.322;9.450;2023-05-20T05:53:52;6.60;;;6.20;;
15938;SDS011;8068;51.322;9.450;2023-05-20T05:56:18;8.30;;;6.47;;
15938;SDS011;8068;51.322;9.450;2023-05-20T05:58:44;7.00;;;6.50;;
15938;SDS011;8068;51.322;9.450;2023-05-20T06:01:13;9.13;;;8.30;;
15938;SDS011;8068;51.322;9.450;2023-05-20T06:03:39;10.50;;;9.47;;
15938;SDS011;8068;51.322;9.450;2023-05-20T06:06:05;7.47;;;6.77;;
15938;SDS011;8068;51.322;9.450;2023-05-20T06:08:31;9.20;;;6.87;;
15938;SDS011;8068;51.322;9.450;2023-05-20T06:10:57;6.90;;;6.37;;
15938;SDS011;8068;51.322;9.450;2023-05-20T06:13:23;7.73;;;6.90;;
15938;SDS011;8068;51.322;9.450;2023-05-20T06:15:50;9.60;;;7.03;;
15938;SDS011;8068;51.322;9.450;2023-05-20T06:18:16;8.07;;;7.40;;
15938;SDS011;8068;51.322;9.450;2023-05-20T06:20:42;8.53;;;6.97;;
15938;SDS011;8068;51.322;9.450;2023-05-20T06:23:08;7.93;;;7.33;;
15938;SDS011;8068;51.322;9.450;2023-05-20T06:25:34;7.97;;;7.37;;
15938;SDS011;8068;51.322;9.450;2023-05-20T06:28:01;7.63;;;7.03;;
15938;SDS011;8068;51.322;9.450;2023-05-20T06:30:27;7.90;;;7.20;;
15938;SDS011;8068;51.322;9.450;2023-05-20T06:32:53;7.90;;;7.27;;
15938;SDS011;8068;51.322;9.450;2023-05-20T06:35:19;7.43;;;6.90;;
15938;SDS011;8068;51.322;9.450;2023-05-20T06:37:45;8.50;;;7.03;;
15938;SDS011;8068;51.322;9.450;2023-05-20T06:40:12;7.93;;;7.13;;
15938;SDS011;8068;51.322;9.450;2023-05-20T06:42:38;7.50;;;6.77;;
15938;SDS011;8068;51.322;9.450;2023-05-20T06:45:04;7.50;;;6.80;;
15938;SDS011;8068;51.322;9.450;2023-05-20T06:47:31;7.17;;;6.40;;
15938;SDS011;8068;51.322;9.450;2023-05-20T06:49:57;8.40;;;7.10;;
15938;SDS011;8068;51.322;9.450;2023-05-20T06:52:23;8.43;;;7.70;;
15938;SDS011;8068;51.322;9.450;2023-05-20T06:54:49;8.87;;;7.97;;
15938;SDS011;8068;51.322;9.450;2023-05-20T06:57:15;13.60;;;8.33;;
15938;SDS011;8068;51.322;9.450;2023-05-20T06:59:41;9.00;;;8.30;;
15938;SDS011;8068;51.322;9.450;2023-05-20T07:02:08;9.00;;;8.10;;
15938;SDS011;8068;51.322;9.450;2023-05-20T07:04:34;8.63;;;7.83;;
15938;SDS011;8068;51.322;9.450;2023-05-20T07:07:00;8.97;;;8.27;;
15938;SDS011;8068;51.322;9.450;2023-05-20T07:09:26;9.17;;;8.30;;
15938;SDS011;8068;51.322;9.450;2023-05-20T07:11:53;10.23;;;8.93;;
15938;SDS011;8068;51.322;9.450;2023-05-20T07:14:19;7.97;;;7.27;;
15938;SDS011;8068;51.322;9.450;2023-05-20T07:16:45;8.37;;;7.63;;
15938;SDS011;8068;51.322;9.450;2023-05-20T07:19:11;9.73;;;7.47;;
15938;SDS011;8068;51.322;9.450;2023-05-20T07:21:37;10.40;;;8.00;;
15938;SDS011;8068;51.322;9.450;2023-05-20T07:24:04;7.70;;;7.07;;
15938;SDS011;8068;51.322;9.450;2023-05-20T07:26:30;9.10;;;7.47;;
15938;SDS011;8068;51.322;9.450;2023-05-20T07:28:58;8.57;;;7.77;;
15938;SDS011;8068;51.322;9.450;2023-05-20T07:31:24;7.93;;;7.23;;
15938;SDS011;8068;51.322;9.450;2023-05-20T07:33:51;7.80;;;7.07;;
15938;SDS011;8068;51.322;9.450;2023-05-20T07:36:17;9.07;;;7.50;;
15938;SDS011;8068;51.322;9.450;2023-05-20T07:38:44;8.53;;;7.77;;
15938;SDS011;8068;51.322;9.450;2023-05-20T07:41:26;7.93;;;7.33;;
15938;SDS011;8068;51.322;9.450;2023-05-20T07:43:52;8.27;;;7.63;;
15938;SDS011;8068;51.322;9.450;2023-05-20T07:46:18;8.27;;;7.57;;
15938;SDS011;8068;51.322;9.450;2023-05-20T07:48:45;8.23;;;7.43;;
15938;SDS011;8068;51.322;9.450;2023-05-20T07:51:11;8.33;;;7.63;;
15938;SDS011;8068;51.322;9.450;2023-05-20T07:53:38;8.93;;;8.20;;
15938;SDS011;8068;51.322;9.450;2023-05-20T07:56:04;12.20;;;7.67;;
15938;SDS011;8068;51.322;9.450;2023-05-20T07:58:31;8.80;;;8.00;;
15938;SDS011;8068;51.322;9.450;2023-05-20T08:00:57;8.17;;;7.50;;
15938;SDS011;8068;51.322;9.450;2023-05-20T08:03:23;8.93;;;8.23;;
15938;SDS011;8068;51.322;9.450;2023-05-20T08:05:49;9.20;;;8.40;;
15938;SDS011;8068;51.322;9.450;2023-05-20T08:08:16;10.43;;;7.43;;
15938;SDS011;8068;51.322;9.450;2023-05-20T08:10:42;8.83;;;7.90;;
15938;SDS011;8068;51.322;9.450;2023-05-20T08:13:08;9.97;;;7.93;;
15938;SDS011;8068;51.322;9.450;2023-05-20T08:15:34;7.97;;;7.33;;
15938;SDS011;8068;51.322;9.450;2023-05-20T08:18:01;9.23;;;8.50;;
15938;SDS011;8068;51.322;9.450;2023-05-20T08:20:28;9.40;;;8.60;;
15938;SDS011;8068;51.322;9.450;2023-05-20T08:22:54;14.90;;;9.43;;
15938;SDS011;8068;51.322;9.450;2023-05-20T08:25:20;8.27;;;7.57;;
15938;SDS011;8068;51.322;9.450;2023-05-20T08:27:48;9.03;;;8.23;;
15938;SDS011;8068;51.322;9.450;2023-05-20T08:30:14;9.93;;;8.10;;
15938;SDS011;8068;51.322;9.450;2023-05-20T08:32:40;9.00;;;8.20;;
15938;SDS011;8068;51.322;9.450;2023-05-20T08:35:07;9.20;;;8.30;;
15938;SDS011;8068;51.322;9.450;2023-05-20T08:37:34;9.63;;;8.73;;
15938;SDS011;8068;51.322;9.450;2023-05-20T08:40:00;9.30;;;8.40;;
15938;SDS011;8068;51.322;9.450;2023-05-20T08:42:26;8.20;;;7.40;;
15938;SDS011;8068;51.322;9.450;2023-05-20T08:44:52;9.07;;;8.27;;
15938;SDS011;8068;51.322;9.450;2023-05-20T08:47:19;11.23;;;8.97;;
15938;SDS011;8068;51.322;9.450;2023-05-20T08:49:49;11.10;;;9.53;;
15938;SDS011;8068;51.322;9.450;2023-05-20T08:52:20;10.80;;;9.37;;
15938;SDS011;8068;51.322;9.450;2023-05-20T08:54:47;9.30;;;8.50;;
15938;SDS011;8068;51.322;9.450;2023-05-20T08:57:14;9.47;;;8.50;;
15938;SDS011;8068;51.322;9.450;2023-05-20T08:59:44;9.73;;;8.60;;
15938;SDS011;8068;51.322;9.450;2023-05-20T09:02:11;12.40;;;9.00;;
15938;SDS011;8068;51.322;9.450;2023-05-20T09:04:38;10.47;;;9.37;;
15938;SDS011;8068;51.322;9.450;2023-05-20T09:07:04;8.80;;;8.00;;
15938;SDS011;8068;51.322;9.450;2023-05-20T09:09:34;9.07;;;8.27;;
15938;SDS011;8068;51.322;9.450;2023-05-20T09:12:01;8.60;;;8.00;;
15938;SDS011;8068;51.322;9.450;2023-05-20T09:14:28;8.97;;;8.00;;
15938;SDS011;8068;51.322;9.450;2023-05-20T09:16:55;9.50;;;8.67;;
15938;SDS011;8068;51.322;9.450;2023-05-20T09:19:22;8.67;;;7.87;;
15938;SDS011;8068;51.322;9.450;2023-05-20T09:21:51;13.40;;;8.17;;
15938;SDS011;8068;51.322;9.450;2023-05-20T09:24:22;9.63;;;8.17;;
15938;SDS011;8068;51.322;9.450;2023-05-20T09:26:50;8.27;;;7.47;;
15938;SDS011;8068;51.322;9.450;2023-05-20T09:29:16;8.83;;;8.10;;
15938;SDS011;8068;51.322;9.450;2023-05-20T09:31:46;8.50;;;7.90;;
15938;SDS011;8068;51.322;9.450;2023-05-20T09:34:14;9.80;;;6.97;;
15938;SDS011;8068;51.322;9.450;2023-05-20T09:36:41;7.17;;;6.67;;
15938;SDS011;8068;51.322;9.450;2023-05-20T09:39:13;8.30;;;7.60;;
15938;SDS011;8068;51.322;9.450;2023-05-20T09:42:00;7.23;;;6.50;;
15938;SDS011;8068;51.322;9.450;2023-05-20T09:44:30;7.30;;;6.80;;
15938;SDS011;8068;51.322;9.450;2023-05-20T09:46:58;11.73;;;6.30;;
15938;SDS011;8068;51.322;9.450;2023-05-20T09:49:25;7.47;;;6.77;;
15938;SDS011;8068;51.322;9.450;2023-05-20T09:51:53;8.37;;;7.57;;
15938;SDS011;8068;51.322;9.450;2023-05-20T09:54:19;7.40;;;6.90;;
15938;SDS011;8068;51.322;9.450;2023-05-20T09:56:47;7.10;;;6.50;;
15938;SDS011;8068;51.322;9.450;2023-05-20T09:59:14;8.30;;;6.10;;
15938;SDS011;8068;51.322;9.450;2023-05-20T10:01:43;7.20;;;6.50;;
15938;SDS011;8068;51.322;9.450;2023-05-20T10:04:10;6.67;;;6.33;;
15938;SDS011;8068;51.322;9.450;2023-05-20T10:15:11;6.87;;;6.30;;
15938;SDS011;8068;51.322;9.450;2023-05-20T10:20:15;9.00;;;8.10;;
15938;SDS011;8068;51.322;9.450;2023-05-20T10:22:41;7.47;;;6.83;;
15938;SDS011;8068;51.322;9.450;2023-05-20T10:25:23;7.20;;;6.70;;
15938;SDS011;8068;51.322;9.450;2023-05-20T10:28:03;7.90;;;7.30;;
15938;SDS011;8068;51.322;9.450;2023-05-20T10:30:33;8.27;;;7.60;;
15938;SDS011;8068;51.322;9.450;2023-05-20T10:33:02;8.97;;;8.27;;
15938;SDS011;8068;51.322;9.450;2023-05-20T10:35:30;7.50;;;7.00;;
15938;SDS011;8068;51.322;9.450;2023-05-20T10:38:10;8.10;;;7.00;;
15938;SDS011;8068;51.322;9.450;2023-05-20T10:40:37;7.93;;;7.40;;
15938;SDS011;8068;51.322;9.450;2023-05-20T10:43:10;10.40;;;7.23;;
15938;SDS011;8068;51.322;9.450;2023-05-20T10:45:47;8.10;;;7.40;;
15938;SDS011;8068;51.322;9.450;2023-05-20T10:50:46;7.20;;;6.70;;
15938;SDS011;8068;51.322;9.450;2023-05-20T10:53:13;8.60;;;7.80;;
15938;SDS011;8068;51.322;9.450;2023-05-20T10:55:58;7.80;;;7.10;;
15938;SDS011;8068;51.322;9.450;2023-05-20T10:58:24;7.83;;;7.13;;
15938;SDS011;8068;51.322;9.450;2023-05-20T11:00:51;7.43;;;6.93;;
15938;SDS011;8068;51.322;9.450;2023-05-20T11:03:21;7.10;;;6.50;;
15938;SDS011;8068;51.322;9.450;2023-05-20T11:05:48;7.27;;;6.70;;
15938;SDS011;8068;51.322;9.450;2023-05-20T11:08:15;8.03;;;7.10;;
15938;SDS011;8068;51.322;9.450;2023-05-20T11:10:57;7.97;;;7.10;;
15938;SDS011;8068;51.322;9.450;2023-05-20T11:13:24;7.40;;;6.67;;
15938;SDS011;8068;51.322;9.450;2023-05-20T11:15:50;8.20;;;7.10;;
15938;SDS011;8068;51.322;9.450;2023-05-20T11:18:16;7.80;;;7.00;;
15938;SDS011;8068;51.322;9.450;2023-05-20T11:20:45;7.00;;;6.33;;
15938;SDS011;8068;51.322;9.450;2023-05-20T11:23:12;7.30;;;6.80;;
15938;SDS011;8068;51.322;9.450;2023-05-20T11:25:39;7.73;;;6.87;;
15938;SDS011;8068;51.322;9.450;2023-05-20T11:28:11;6.97;;;6.43;;
15938;SDS011;8068;51.322;9.450;2023-05-20T11:30:39;7.17;;;6.50;;
15938;SDS011;8068;51.322;9.450;2023-05-20T11:33:06;7.00;;;6.40;;
15938;SDS011;8068;51.322;9.450;2023-05-20T11:35:37;7.43;;;6.83;;
15938;SDS011;8068;51.322;9.450;2023-05-20T11:38:09;6.03;;;5.70;;
15938;SDS011;8068;51.322;9.450;2023-05-20T11:40:36;6.37;;;5.97;;
15938;SDS011;8068;51.322;9.450;2023-05-20T11:43:16;6.40;;;5.97;;
15938;SDS011;8068;51.322;9.450;2023-05-20T11:45:43;7.70;;;5.77;;
15938;SDS011;8068;51.322;9.450;2023-05-20T11:48:11;6.83;;;6.23;;
15938;SDS011;8068;51.322;9.450;2023-05-20T11:50:40;9.17;;;5.60;;
15938;SDS011;8068;51.322;9.450;2023-05-20T11:53:08;7.00;;;6.40;;
15938;SDS011;8068;51.322;9.450;2023-05-20T11:55:45;9.40;;;6.20;;
15938;SDS011;8068;51.322;9.450;2023-05-20T11:58:19;6.17;;;5.70;;
15938;SDS011;8068;51.322;9.450;2023-05-20T12:00:48;6.77;;;6.17;;
15938;SDS011;8068;51.322;9.450;2023-05-20T12:03:20;6.07;;;5.20;;
15938;SDS011;8068;51.322;9.450;2023-05-20T12:05:47;6.90;;;6.20;;
15938;SDS011;8068;51.322;9.450;2023-05-20T12:08:15;6.53;;;5.93;;
15938;SDS011;8068;51.322;9.450;2023-05-20T12:10:41;6.43;;;5.90;;
15938;SDS011;8068;51.322;9.450;2023-05-20T12:13:09;6.53;;;5.93;;
15938;SDS011;8068;51.322;9.450;2023-05-20T12:15:38;6.40;;;6.00;;
15938;SDS011;8068;51.322;9.450;2023-05-20T12:18:04;6.40;;;5.90;;
15938;SDS011;8068;51.322;9.450;2023-05-20T12:20:31;8.80;;;5.63;;
15938;SDS011;8068;51.322;9.450;2023-05-20T12:22:59;7.13;;;6.47;;
15938;SDS011;8068;51.322;9.450;2023-05-20T12:25:26;6.33;;;5.93;;
15938;SDS011;8068;51.322;9.450;2023-05-20T12:27:52;6.83;;;6.10;;
15938;SDS011;8068;51.322;9.450;2023-05-20T12:30:19;6.20;;;5.57;;
15938;SDS011;8068;51.322;9.450;2023-05-20T12:32:47;6.57;;;6.13;;
15938;SDS011;8068;51.322;9.450;2023-05-20T12:35:15;6.70;;;6.00;;
15938;SDS011;8068;51.322;9.450;2023-05-20T12:37:42;9.77;;;5.50;;
15938;SDS011;8068;51.322;9.450;2023-05-20T12:40:09;6.10;;;5.60;;
15938;SDS011;8068;51.322;9.450;2023-05-20T12:42:37;6.10;;;5.57;;
15938;SDS011;8068;51.322;9.450;2023-05-20T12:45:04;9.00;;;6.60;;
15938;SDS011;8068;51.322;9.450;2023-05-20T12:47:31;11.03;;;6.60;;
15938;SDS011;8068;51.322;9.450;2023-05-20T12:49:58;6.60;;;6.10;;
15938;SDS011;8068;51.322;9.450;2023-05-20T12:52:25;7.13;;;6.57;;
15938;SDS011;8068;51.322;9.450;2023-05-20T12:54:55;6.83;;;6.13;;
15938;SDS011;8068;51.322;9.450;2023-05-20T12:57:22;6.97;;;6.43;;
15938;SDS011;8068;51.322;9.450;2023-05-20T12:59:48;8.00;;;6.60;;
15938;SDS011;8068;51.322;9.450;2023-05-20T13:02:14;6.87;;;6.23;;
15938;SDS011;8068;51.322;9.450;2023-05-20T13:04:41;7.20;;;6.60;;
15938;SDS011;8068;51.322;9.450;2023-05-20T13:07:07;8.00;;;7.40;;
15938;SDS011;8068;51.322;9.450;2023-05-20T13:09:33;7.33;;;6.60;;
15938;SDS011;8068;51.322;9.450;2023-05-20T13:12:00;6.77;;;6.30;;
15938;SDS011;8068;51.322;9.450;2023-05-20T13:14:26;7.03;;;6.47;;
15938;SDS011;8068;51.322;9.450;2023-05-20T13:16:53;7.17;;;6.67;;
15938;SDS011;8068;51.322;9.450;2023-05-20T13:19:20;7.27;;;6.57;;
15938;SDS011;8068;51.322;9.450;2023-05-20T13:21:47;7.23;;;6.53;;
15938;SDS011;8068;51.322;9.450;2023-05-20T13:24:14;8.37;;;7.67;;
15938;SDS011;8068;51.322;9.450;2023-05-20T13:26:40;8.03;;;7.33;;
15938;SDS011;8068;51.322;9.450;2023-05-20T13:29:06;8.27;;;7.57;;
15938;SDS011;8068;51.322;9.450;2023-05-20T13:31:32;8.67;;;7.80;;
15938;SDS011;8068;51.322;9.450;2023-05-20T13:33:58;8.77;;;8.00;;
15938;SDS011;8068;51.322;9.450;2023-05-20T13:36:25;8.43;;;7.73;;
15938;SDS011;8068;51.322;9.450;2023-05-20T13:38:52;6.70;;;6.23;;
15938;SDS011;8068;51.322;9.450;2023-05-20T13:41:18;7.87;;;7.17;;
15938;SDS011;8068;51.322;9.450;2023-05-20T13:43:44;8.30;;;7.50;;
15938;SDS011;8068;51.322;9.450;2023-05-20T13:46:11;8.00;;;7.33;;
15938;SDS011;8068;51.322;9.450;2023-05-20T13:48:37;8.47;;;7.67;;
15938;SDS011;8068;51.322;9.450;2023-05-20T13:51:03;8.67;;;7.93;;
15938;SDS011;8068;51.322;9.450;2023-05-20T13:53:29;9.47;;;7.43;;
15938;SDS011;8068;51.322;9.450;2023-05-20T13:55:56;8.00;;;7.33;;
15938;SDS011;8068;51.322;9.450;2023-05-20T13:58:22;7.90;;;7.30;;
15938;SDS011;8068;51.322;9.450;2023-05-20T14:00:48;9.10;;;7.83;;
15938;SDS011;8068;51.322;9.450;2023-05-20T14:03:15;8.20;;;7.40;;
15938;SDS011;8068;51.322;9.450;2023-05-20T14:05:41;8.30;;;7.60;;
15938;SDS011;8068;51.322;9.450;2023-05-20T14:08:07;11.10;;;8.30;;
15938;SDS011;8068;51.322;9.450;2023-05-20T14:10:33;9.40;;;8.50;;
15938;SDS011;8068;51.322;9.450;2023-05-20T14:13:00;9.17;;;8.30;;
15938;SDS011;8068;51.322;9.450;2023-05-20T14:15:27;10.87;;;8.80;;
15938;SDS011;8068;51.322;9.450;2023-05-20T14:17:56;13.73;;;8.40;;
15938;SDS011;8068;51.322;9.450;2023-05-20T14:20:23;9.50;;;8.60;;
15938;SDS011;8068;51.322;9.450;2023-05-20T14:22:50;13.33;;;9.40;;
15938;SDS011;8068;51.322;9.450;2023-05-20T14:25:17;9.57;;;8.77;;
15938;SDS011;8068;51.322;9.450;2023-05-20T14:27:43;10.40;;;9.40;;
15938;SDS011;8068;51.322;9.450;2023-05-20T14:30:10;9.67;;;8.80;;
15938;SDS011;8068;51.322;9.450;2023-05-20T14:32:36;10.37;;;9.43;;
15938;SDS011;8068;51.322;9.450;2023-05-20T14:35:03;10.73;;;9.53;;
15938;SDS011;8068;51.322;9.450;2023-05-20T14:37:30;10.97;;;9.63;;
15938;SDS011;8068;51.322;9.450;2023-05-20T14:39:56;11.57;;;9.00;;
15938;SDS011;8068;51.322;9.450;2023-05-20T14:42:22;11.97;;;9.40;;
15938;SDS011;8068;51.322;9.450;2023-05-20T14:44:48;11.37;;;9.30;;
15938;SDS011;8068;51.322;9.450;2023-05-20T14:47:15;14.70;;;10.67;;
15938;SDS011;8068;51.322;9.450;2023-05-20T14:49:46;14.63;;;10.57;;
15938;SDS011;8068;51.322;9.450;2023-05-20T14:52:15;10.93;;;9.90;;
15938;SDS011;8068;51.322;9.450;2023-05-20T14:54:42;11.73;;;10.63;;
15938;SDS011;8068;51.322;9.450;2023-05-20T14:57:08;11.93;;;10.70;;
15938;SDS011;8068;51.322;9.450;2023-05-20T14:59:34;11.10;;;10.00;;
15938;SDS011;8068;51.322;9.450;2023-05-20T15:02:00;14.00;;;11.50;;
15938;SDS011;8068;51.322;9.450;2023-05-20T15:04:27;14.20;;;11.20;;
15938;SDS011;8068;51.322;9.450;2023-05-20T15:06:53;12.03;;;10.90;;
15938;SDS011;8068;51.322;9.450;2023-05-20T15:09:19;19.63;;;11.23;;
15938;SDS011;8068;51.322;9.450;2023-05-20T15:11:45;16.07;;;11.63;;
15938;SDS011;8068;51.322;9.450;2023-05-20T15:14:11;12.03;;;10.83;;
15938;SDS011;8068;51.322;9.450;2023-05-20T15:16:38;17.73;;;11.57;;
15938;SDS011;8068;51.322;9.450;2023-05-20T15:19:04;15.73;;;11.70;;